createdAt,value
2023-02-25T00:02:03.161Z,100280.63
2023-02-25T00:04:56.608Z,100293.16
2023-02-25T00:07:33.394Z,100287.79
2023-02-25T00:10:01.690Z,100281.64
2023-02-25T00:12:44.174Z,100291.81
2023-02-25T00:15:19.355Z,100294.13
2023-02-25T00:17:59.641Z,100302.18
2023-02-25T00:20:49.407Z,100301.66
2023-02-25T00:23:42.959Z,100293.16
2023-02-25T00:26:19.043Z,100295.48
2023-02-25T00:28:55.256Z,100289.98
2023-02-25T00:31:35.636Z,100292.01
2023-02-25T00:34:15.774Z,100293.97
2023-02-25T00:36:57.715Z,100305.67
2023-02-25T00:39:45.568Z,100306.49
2023-02-25T00:42:24.065Z,100322.02
2023-02-25T00:45:14.536Z,100308.48
2023-02-25T00:47:47.044Z,100305.15
2023-02-25T00:50:27.337Z,100302.66
2023-02-25T00:53:10.582Z,100305.51
2023-02-25T00:56:00.255Z,100301.85
2023-02-25T00:58:32.953Z,100311.69
2023-02-25T01:01:27.506Z,100327.16
2023-02-25T01:04:01.006Z,100326.70
2023-02-25T01:06:39.036Z,100338.34
2023-02-25T01:09:15.385Z,100350.50
2023-02-25T01:11:58.376Z,100348.34
2023-02-25T01:14:30.519Z,100353.02
2023-02-25T01:17:26.133Z,100361.36
2023-02-25T01:19:58.914Z,100374.86
2023-02-25T01:22:39.301Z,100384.02
2023-02-25T01:25:19.101Z,100381.50
2023-02-25T01:27:59.090Z,100374.70
2023-02-25T01:30:39.637Z,100371.03
2023-02-25T01:33:13.171Z,100368.32
2023-02-25T01:35:46.927Z,100376.30
2023-02-25T01:38:31.441Z,100371.46
2023-02-25T01:41:10.302Z,100372.64
2023-02-25T01:43:43.171Z,100369.63
2023-02-25T01:46:36.391Z,100363.13
2023-02-25T01:49:11.628Z,100360.60
2023-02-25T01:51:45.102Z,100362.63
2023-02-25T01:54:25.780Z,100365.80
2023-02-25T01:57:00.699Z,100365.61
2023-02-25T01:59:33.396Z,100361.26
2023-02-25T02:02:01.501Z,100360.80
2023-02-25T02:04:34.602Z,100354.59
2023-02-25T02:07:02.599Z,100356.62
2023-02-25T02:09:55.754Z,100358.28
2023-02-25T02:12:30.971Z,100350.11
2023-02-25T02:15:01.991Z,100350.44
2023-02-25T02:17:35.003Z,100353.90
2023-02-25T02:20:21.576Z,100367.57
2023-02-25T02:23:23.212Z,100375.41
2023-02-25T02:26:47.139Z,100356.42
2023-02-25T02:29:38.533Z,100364.40
2023-02-25T02:32:26.412Z,100355.90
2023-02-25T02:35:23.687Z,100354.55
2023-02-25T02:37:58.462Z,100368.38
2023-02-25T02:40:45.741Z,100374.89
2023-02-25T02:43:18.796Z,100364.92
2023-02-25T02:46:28.971Z,100372.05
2023-02-25T02:49:18.404Z,100369.73
2023-02-25T02:51:59.911Z,100375.41
2023-02-25T02:54:33.494Z,100386.24
2023-02-25T02:57:29.263Z,100386.04
2023-02-25T03:00:19.586Z,100391.70
2023-02-25T03:03:21.444Z,100395.33
2023-02-25T03:05:54.423Z,100398.17
2023-02-25T03:08:33.612Z,100403.96
2023-02-25T03:11:13.790Z,100407.49
2023-02-25T03:13:46.924Z,100403.30
2023-02-25T03:16:31.646Z,100402.81
2023-02-25T03:19:19.711Z,100412.33
2023-02-25T03:21:59.574Z,100405.17
2023-02-25T03:24:36.740Z,100400.82
2023-02-25T03:27:46.285Z,100408.02
2023-02-25T03:30:18.648Z,100412.49
2023-02-25T03:32:49.244Z,100408.96
2023-02-25T03:35:31.590Z,100413.64
2023-02-25T03:38:21.089Z,100425.15
2023-02-25T03:40:58.406Z,100419.66
2023-02-25T03:43:43.414Z,100414.65
2023-02-25T03:46:17.261Z,100419.49
2023-02-25T03:48:58.650Z,100424.49
2023-02-25T03:51:44.213Z,100417.98
2023-02-25T03:54:17.797Z,100416.52
2023-02-25T03:56:50.235Z,100417.46
2023-02-25T03:59:18.734Z,100423.48
2023-02-25T04:02:12.682Z,100429.13
2023-02-25T04:05:14.903Z,100427.50
2023-02-25T04:08:03.392Z,100446.14
2023-02-25T04:10:36.309Z,100447.48
2023-02-25T04:13:12.479Z,100450.13
2023-02-25T04:15:52.949Z,100447.45
2023-02-25T04:18:27.894Z,100446.27
2023-02-25T04:21:03.824Z,100446.43
2023-02-25T04:23:37.406Z,100445.48
2023-02-25T04:26:09.943Z,100446.34
2023-02-25T04:28:43.050Z,100451.66
2023-02-25T04:31:16.082Z,100454.93
2023-02-25T04:33:55.044Z,100449.15
2023-02-25T04:39:38.199Z,100452.88
2023-02-25T04:42:17.401Z,100454.80
2023-02-25T04:44:55.228Z,100447.15
2023-02-25T04:47:27.870Z,100454.18
2023-02-25T04:50:03.555Z,100447.31
2023-02-25T04:52:37.334Z,100454.51
2023-02-25T04:55:14.136Z,100453.01
2023-02-25T04:57:45.155Z,100445.02
2023-02-25T05:00:48.722Z,100451.86
2023-02-25T05:03:26.815Z,100448.20
2023-02-25T05:05:57.625Z,100443.00
2023-02-25T05:08:54.238Z,100445.35
2023-02-25T05:11:41.702Z,100445.02
2023-02-25T05:14:20.159Z,100446.70
2023-02-25T05:16:58.416Z,100445.84
2023-02-25T05:19:46.458Z,100464.84
2023-02-25T05:22:36.940Z,100464.55
2023-02-25T05:25:05.593Z,100467.69
2023-02-25T05:27:33.915Z,100473.18
2023-02-25T05:30:20.952Z,100471.80
2023-02-25T05:32:59.317Z,100472.16
2023-02-25T05:35:42.173Z,100459.48
2023-02-25T05:38:16.792Z,100453.30
2023-02-25T05:40:51.668Z,100453.40
2023-02-25T05:43:26.860Z,100457.09
2023-02-25T05:46:00.517Z,100461.41
2023-02-25T05:48:34.543Z,100454.93
2023-02-25T05:51:04.539Z,100458.40
2023-02-25T05:53:40.366Z,100456.21
2023-02-25T05:56:15.933Z,100464.71
2023-02-25T05:59:00.229Z,100465.04
2023-02-25T06:01:33.862Z,100479.20
2023-02-25T06:04:11.212Z,100470.70
2023-02-25T06:06:44.109Z,100470.70
2023-02-25T06:09:22.109Z,100469.32
2023-02-25T06:11:57.374Z,100477.52
2023-02-25T06:14:40.734Z,100466.18
2023-02-25T06:17:13.814Z,100461.38
2023-02-25T06:19:42.476Z,100468.38
2023-02-25T06:22:32.074Z,100470.37
2023-02-25T06:25:14.815Z,100477.36
2023-02-25T06:27:56.159Z,100472.03
2023-02-25T06:30:36.001Z,100473.21
2023-02-25T06:33:11.855Z,100482.53
2023-02-25T06:35:47.252Z,100480.53
2023-02-25T06:38:23.986Z,100488.19
2023-02-25T06:41:18.613Z,100490.70
2023-02-25T06:43:52.508Z,100486.52
2023-02-25T06:46:39.475Z,100493.88
2023-02-25T06:49:27.056Z,100493.88
2023-02-25T06:52:09.677Z,100494.70
2023-02-25T06:54:40.427Z,100495.22
2023-02-25T06:57:11.123Z,100502.21
2023-02-25T06:59:54.716Z,100511.23
2023-02-25T07:02:36.612Z,100502.73
2023-02-25T07:05:16.721Z,100511.86
2023-02-25T07:08:08.257Z,100500.02
2023-02-25T07:10:43.158Z,100496.36
2023-02-25T07:13:45.045Z,100496.82
2023-02-25T07:16:21.269Z,100497.99
2023-02-25T07:18:57.653Z,100502.48
2023-02-25T07:21:32.177Z,100504.14
2023-02-25T07:24:08.973Z,100514.63
2023-02-25T07:26:59.005Z,100524.38
2023-02-25T07:29:37.184Z,100533.24
2023-02-25T07:32:13.231Z,100530.10
2023-02-25T07:34:53.492Z,100539.09
2023-02-25T07:37:24.816Z,100538.44
2023-02-25T07:40:23.706Z,100539.26
2023-02-25T07:43:01.520Z,100540.14
2023-02-25T07:45:37.579Z,100525.10
2023-02-25T07:48:20.043Z,100526.08
2023-02-25T07:50:57.507Z,100525.27
2023-02-25T07:53:31.000Z,100526.80
2023-02-25T07:56:03.098Z,100525.63
2023-02-25T07:58:43.793Z,100527.29
2023-02-25T08:01:35.845Z,100528.47
2023-02-25T08:04:08.961Z,100520.78
2023-02-25T08:06:47.332Z,100514.63
2023-02-25T08:09:35.404Z,100514.77
2023-02-25T08:15:01.464Z,100509.14
2023-02-25T08:17:37.965Z,100507.34
2023-02-25T08:20:23.102Z,100514.87
2023-02-25T08:23:00.078Z,100510.23
2023-02-25T08:25:33.351Z,100511.89
2023-02-25T08:28:08.738Z,100501.40
2023-02-25T08:30:43.482Z,100504.73
2023-02-25T08:33:25.155Z,100509.57
2023-02-25T08:36:07.801Z,100512.45
2023-02-25T08:38:43.723Z,100506.66
2023-02-25T08:41:31.182Z,100508.55
2023-02-25T08:44:09.497Z,100509.24
2023-02-25T08:46:42.765Z,100515.36
2023-02-25T08:49:22.321Z,100505.16
2023-02-25T08:52:20.329Z,100512.80
2023-02-25T08:54:56.985Z,100506.62
2023-02-25T08:57:31.974Z,100507.94
2023-02-25T09:00:07.774Z,100517.19
2023-02-25T09:02:42.432Z,100514.84
2023-02-25T09:05:25.791Z,100516.14
2023-02-25T09:07:54.153Z,100511.63
2023-02-25T09:10:25.186Z,100514.90
2023-02-25T09:12:54.235Z,100526.57
2023-02-25T09:15:27.032Z,100523.56
2023-02-25T09:17:59.796Z,100522.22
2023-02-25T09:20:30.655Z,100524.71
2023-02-25T09:22:59.286Z,100522.22
2023-02-25T09:25:33.497Z,100516.20
2023-02-25T09:28:09.286Z,100507.70
2023-02-25T09:30:43.139Z,100502.05
2023-02-25T09:33:13.498Z,100510.23
2023-02-25T09:35:49.302Z,100515.06
2023-02-25T09:38:23.003Z,100519.67
2023-02-25T09:40:59.157Z,100515.72
2023-02-25T09:43:40.868Z,100517.38
2023-02-25T09:46:14.780Z,100515.20
2023-02-25T09:48:52.079Z,100506.17
2023-02-25T09:51:23.698Z,100507.02
2023-02-25T09:54:25.349Z,100504.37
2023-02-25T09:57:00.536Z,100503.39
2023-02-25T09:59:35.630Z,100507.38
2023-02-25T10:02:37.700Z,100509.70
2023-02-25T10:05:06.184Z,100505.74
2023-02-25T10:07:43.661Z,100510.55
2023-02-25T10:10:17.659Z,100508.36
2023-02-25T10:13:13.703Z,100505.32
2023-02-25T10:15:53.381Z,100506.49
2023-02-25T10:18:43.534Z,100513.66
2023-02-25T10:21:32.507Z,100513.00
2023-02-25T10:24:07.803Z,100509.86
2023-02-25T10:26:41.470Z,100513.20
2023-02-25T10:29:32.644Z,100510.16
2023-02-25T10:32:21.732Z,100514.48
2023-02-25T10:35:00.576Z,100500.02
2023-02-25T10:37:36.987Z,100507.51
2023-02-25T10:40:06.522Z,100504.37
2023-02-25T10:42:45.414Z,100501.72
2023-02-25T10:45:28.721Z,100500.71
2023-02-25T10:48:09.574Z,100499.53
2023-02-25T10:51:02.936Z,100500.19
2023-02-25T10:53:30.819Z,100500.71
2023-02-25T10:55:58.673Z,100498.35
2023-02-25T10:58:39.387Z,100495.54
2023-02-25T11:01:44.138Z,100490.41
2023-02-25T11:04:33.941Z,100485.44
2023-02-25T11:07:34.979Z,100482.59
2023-02-25T11:10:26.377Z,100482.59
2023-02-25T11:12:59.974Z,100486.26
2023-02-25T11:15:43.833Z,100487.07
2023-02-25T11:18:33.891Z,100477.23
2023-02-25T11:21:16.642Z,100479.75
2023-02-25T11:23:45.424Z,100476.41
2023-02-25T11:26:31.379Z,100474.59
2023-02-25T11:29:33.354Z,100467.78
2023-02-25T11:32:33.322Z,100471.45
2023-02-25T11:35:10.296Z,100461.44
2023-02-25T11:37:48.711Z,100463.63
2023-02-25T11:40:33.406Z,100462.59
2023-02-25T11:43:33.689Z,100460.63
2023-02-25T11:46:10.285Z,100454.09
2023-02-25T11:48:52.513Z,100449.60
2023-02-25T11:51:40.885Z,100452.12
2023-02-25T11:54:35.472Z,100446.10
2023-02-25T11:57:26.310Z,100443.30
2023-02-25T12:00:20.970Z,100435.45
2023-02-25T12:03:20.588Z,100437.08
2023-02-25T12:05:57.941Z,100423.12
2023-02-25T12:08:46.099Z,100426.78
2023-02-25T12:11:25.241Z,100428.16
2023-02-25T12:14:00.944Z,100422.14
2023-02-25T12:16:55.290Z,100426.62
2023-02-25T12:20:09.591Z,100424.00
2023-02-25T12:23:05.500Z,100420.15
2023-02-25T12:26:01.498Z,100433.16
2023-02-25T12:29:06.451Z,100434.86
2023-02-25T12:32:04.461Z,100432.66
2023-02-25T12:35:10.081Z,100424.98
2023-02-25T12:38:19.386Z,100432.14
2023-02-25T12:41:08.450Z,100437.84
2023-02-25T12:43:57.666Z,100439.01
2023-02-25T12:46:36.655Z,100448.66
2023-02-25T12:49:17.124Z,100448.66
2023-02-25T12:52:12.194Z,100450.32
2023-02-25T12:55:11.446Z,100452.65
2023-02-25T12:58:17.812Z,100457.16
2023-02-25T13:01:21.727Z,100451.30
2023-02-25T13:04:11.144Z,100450.81
2023-02-25T13:07:23.796Z,100448.62
2023-02-25T13:10:23.356Z,100447.97
2023-02-25T13:13:00.385Z,100443.62
2023-02-25T13:15:59.455Z,100440.80
2023-02-25T13:19:00.353Z,100446.66
2023-02-25T13:22:02.341Z,100441.82
2023-02-25T13:24:41.284Z,100446.98
2023-02-25T13:27:27.575Z,100445.65
2023-02-25T13:30:27.881Z,100450.81
2023-02-25T13:33:05.914Z,100447.97
2023-02-25T13:36:03.780Z,100454.97
2023-02-25T13:38:44.405Z,100449.31
2023-02-25T13:41:37.286Z,100453.49
2023-02-25T13:45:10.430Z,100449.80
2023-02-25T13:48:26.521Z,100454.97
2023-02-25T13:51:31.720Z,100455.16
2023-02-25T13:54:26.332Z,100456.30
2023-02-25T13:57:17.437Z,100462.81
2023-02-25T14:00:10.575Z,100461.02
2023-02-25T14:03:36.709Z,100452.80
2023-02-25T14:06:32.533Z,100458.82
2023-02-25T14:09:21.435Z,100456.83
2023-02-25T14:12:18.378Z,100459.67
2023-02-25T14:15:24.055Z,100459.31
2023-02-25T14:18:13.523Z,100457.65
2023-02-25T14:20:55.995Z,100465.00
2023-02-25T14:23:36.644Z,100467.00
2023-02-25T14:26:35.095Z,100475.34
2023-02-25T14:29:54.261Z,100478.80
2023-02-25T14:33:02.777Z,100472.27
2023-02-25T14:36:17.972Z,100478.41
2023-02-25T14:39:03.848Z,100470.86
2023-02-25T14:42:10.240Z,100466.38
2023-02-25T14:44:43.427Z,100473.41
2023-02-25T14:47:41.783Z,100468.73
2023-02-25T14:50:31.905Z,100465.88
2023-02-25T14:53:09.767Z,100463.89
2023-02-25T14:56:02.856Z,100464.41
2023-02-25T14:59:08.583Z,100459.77
2023-02-25T15:02:43.410Z,100463.47
2023-02-25T15:05:37.674Z,100465.95
2023-02-25T15:08:43.595Z,100459.61
2023-02-25T15:11:43.866Z,100467.81
2023-02-25T15:14:39.881Z,100471.09
2023-02-25T15:17:36.312Z,100461.27
2023-02-25T15:20:11.359Z,100468.93
2023-02-25T15:23:15.631Z,100475.89
2023-02-25T15:26:15.047Z,100475.89
2023-02-25T15:28:51.148Z,100452.38
2023-02-25T15:31:32.546Z,100482.43
2023-02-25T15:34:22.533Z,100485.73
2023-02-25T15:36:56.820Z,100478.09
2023-02-25T15:40:14.379Z,100487.92
2023-02-25T15:43:20.093Z,100499.59
2023-02-25T15:46:04.270Z,100485.44
2023-02-25T15:48:57.158Z,100485.93
2023-02-25T15:51:52.807Z,100487.07
2023-02-25T15:54:39.647Z,100499.23
2023-02-25T15:57:15.903Z,100506.62
2023-02-25T15:59:58.929Z,100501.07
2023-02-25T16:02:44.550Z,100502.73
2023-02-25T16:05:25.219Z,100511.89
2023-02-25T16:08:22.050Z,100519.05
2023-02-25T16:11:00.009Z,100515.55
2023-02-25T16:13:34.627Z,100515.55
2023-02-25T16:16:07.868Z,100523.56
2023-02-25T16:18:55.476Z,100523.56
2023-02-25T16:22:09.342Z,100520.20
2023-02-25T16:24:40.600Z,100535.20
2023-02-25T16:27:23.832Z,100529.55
2023-02-25T16:30:13.902Z,100535.20
2023-02-25T16:32:51.634Z,100539.52
2023-02-25T16:36:06.946Z,100540.70
2023-02-25T16:38:48.305Z,100540.17
2023-02-25T16:41:39.478Z,100538.51
2023-02-25T16:44:40.238Z,100542.82
2023-02-25T16:47:34.935Z,100537.98
2023-02-25T16:50:17.537Z,100537.49
2023-02-25T16:53:02.253Z,100538.63
2023-02-25T16:55:45.269Z,100546.62
2023-02-25T16:58:22.882Z,100553.12
2023-02-25T17:01:19.312Z,100545.99
2023-02-25T17:03:56.029Z,100543.45
2023-02-25T17:06:30.347Z,100554.59
2023-02-25T17:09:04.995Z,100556.62
2023-02-25T17:11:48.445Z,100567.60
2023-02-25T17:14:23.168Z,100566.76
2023-02-25T17:16:54.349Z,100555.77
2023-02-25T17:19:47.102Z,100569.41
2023-02-25T17:22:25.654Z,100571.73
2023-02-25T17:24:57.005Z,100573.72
2023-02-25T17:27:32.981Z,100580.20
2023-02-25T17:30:08.775Z,100589.87
2023-02-25T17:32:37.124Z,100592.52
2023-02-25T17:35:08.490Z,100588.53
2023-02-25T17:37:44.078Z,100593.99
2023-02-25T17:40:17.720Z,100606.48
2023-02-25T17:43:13.869Z,100599.13
2023-02-25T17:45:52.221Z,100600.82
2023-02-25T17:48:34.658Z,100604.29
2023-02-25T17:51:07.493Z,100599.29
2023-02-25T17:53:48.032Z,100609.42
2023-02-25T17:56:35.416Z,100610.27
2023-02-25T17:59:36.863Z,100617.73
2023-02-25T18:02:28.466Z,100604.42
2023-02-25T18:05:23.041Z,100613.22
2023-02-25T18:08:10.757Z,100615.54
2023-02-25T18:10:59.252Z,100616.68
2023-02-25T18:13:33.260Z,100614.49
2023-02-25T18:16:31.420Z,100626.98
2023-02-25T18:19:06.042Z,100631.16
2023-02-25T18:21:40.778Z,100617.11
2023-02-25T18:24:37.430Z,100621.65
2023-02-25T18:27:37.240Z,100619.95
2023-02-25T18:30:25.493Z,100620.77
2023-02-25T18:33:05.620Z,100633.09
2023-02-25T18:35:36.730Z,100623.55
2023-02-25T18:38:11.432Z,100620.02
2023-02-25T18:40:58.323Z,100619.66
2023-02-25T18:43:41.383Z,100624.82
2023-02-25T18:46:12.642Z,100620.31
2023-02-25T18:48:59.743Z,100611.81
2023-02-25T18:51:48.738Z,100612.23
2023-02-25T18:54:28.944Z,100613.91
2023-02-25T18:57:10.086Z,100617.07
2023-02-25T18:59:44.938Z,100609.13
2023-02-25T19:02:33.307Z,100615.41
2023-02-25T19:05:17.811Z,100616.55
2023-02-25T19:08:04.455Z,100622.83
2023-02-25T19:10:43.045Z,100618.35
2023-02-25T19:13:30.745Z,100616.68
2023-02-25T19:16:11.674Z,100611.02
2023-02-25T19:18:51.718Z,100603.37
2023-02-25T19:21:21.704Z,100602.85
2023-02-25T19:24:01.465Z,100596.77
2023-02-25T19:26:48.584Z,100589.87
2023-02-25T19:29:48.516Z,100600.89
2023-02-25T19:32:17.967Z,100596.37
2023-02-25T19:34:49.498Z,100597.00
2023-02-25T19:37:22.625Z,100598.17
2023-02-25T19:39:54.900Z,100596.80
2023-02-25T19:42:41.250Z,100599.09
2023-02-25T19:45:17.728Z,100610.21
2023-02-25T19:47:46.429Z,100598.80
2023-02-25T19:50:18.432Z,100591.05
2023-02-25T19:52:59.256Z,100608.31
2023-02-25T19:55:34.815Z,100604.45
2023-02-25T19:58:09.905Z,100608.73
2023-02-25T20:01:01.094Z,100598.34
2023-02-25T20:03:35.013Z,100607.46
2023-02-25T20:06:13.568Z,100616.26
2023-02-25T20:08:47.080Z,100625.05
2023-02-25T20:11:19.538Z,100618.88
2023-02-25T20:14:07.779Z,100623.38
2023-02-25T20:16:40.985Z,100620.02
2023-02-25T20:19:14.550Z,100624.01
2023-02-25T20:21:54.257Z,100626.49
2023-02-25T20:24:38.398Z,100630.48
2023-02-25T20:27:17.041Z,100633.65
2023-02-25T20:30:04.473Z,100625.77
2023-02-25T20:32:38.361Z,100628.06
2023-02-25T20:35:18.391Z,100615.41
2023-02-25T20:38:12.535Z,100615.41
2023-02-25T20:41:03.987Z,100633.20
2023-02-25T20:43:47.046Z,100629.53
2023-02-25T20:46:29.779Z,100633.20
2023-02-25T20:49:19.529Z,100632.96
2023-02-25T20:51:59.938Z,100629.59
2023-02-25T20:54:47.644Z,100641.76
2023-02-25T20:57:38.127Z,100638.95
2023-02-25T21:00:21.016Z,100640.62
2023-02-25T21:03:02.520Z,100651.60
2023-02-25T21:05:38.494Z,100651.60
2023-02-25T21:08:15.380Z,100650.13
2023-02-25T21:10:53.824Z,100650.13
2023-02-25T21:13:29.455Z,100650.69
2023-02-25T21:16:07.671Z,100647.22
2023-02-25T21:18:42.748Z,100655.98
2023-02-25T21:21:14.678Z,100657.98
2023-02-25T21:23:59.143Z,100668.47
2023-02-25T21:26:48.555Z,100666.48
2023-02-25T21:29:42.109Z,100661.97
2023-02-25T21:32:38.514Z,100668.80
2023-02-25T21:35:26.310Z,100669.62
2023-02-25T21:38:04.493Z,100676.19
2023-02-25T21:40:34.162Z,100683.91
2023-02-25T21:43:20.328Z,100687.14
2023-02-25T21:46:01.336Z,100689.59
2023-02-25T21:48:29.983Z,100690.05
2023-02-25T21:51:13.642Z,100696.79
2023-02-25T21:53:47.590Z,100697.87
2023-02-25T21:56:38.908Z,100705.84
2023-02-25T21:59:14.250Z,100706.23
2023-02-25T22:01:48.783Z,100698.45
2023-02-25T22:04:34.166Z,100699.08
2023-02-25T22:07:08.160Z,100706.20
2023-02-25T22:09:41.436Z,100703.42
2023-02-25T22:12:11.826Z,100704.11
2023-02-25T22:14:44.806Z,100709.54
2023-02-25T22:17:23.386Z,100705.42
2023-02-25T22:19:56.417Z,100708.00
2023-02-25T22:22:35.640Z,100722.72
2023-02-25T22:25:12.434Z,100725.56
2023-02-25T22:27:43.889Z,100720.85
2023-02-25T22:30:26.417Z,100723.44
2023-02-25T22:33:03.787Z,100724.32
2023-02-25T22:35:37.405Z,100728.27
2023-02-25T22:38:12.383Z,100722.09
2023-02-25T22:40:45.881Z,100734.78
2023-02-25T22:43:16.767Z,100737.59
2023-02-25T22:45:47.746Z,100742.95
2023-02-25T22:48:29.701Z,100744.98
2023-02-25T22:51:02.722Z,100760.80
2023-02-25T22:53:52.385Z,100762.80
2023-02-25T22:56:24.835Z,100761.40
2023-02-25T22:59:03.511Z,100775.26
2023-02-25T23:01:41.000Z,100767.67
2023-02-25T23:04:19.812Z,100765.45
2023-02-25T23:06:52.857Z,100771.11
2023-02-25T23:09:34.174Z,100775.09
2023-02-25T23:12:21.440Z,100770.62
2023-02-25T23:14:54.610Z,100768.10
2023-02-25T23:17:32.919Z,100767.54
2023-02-25T23:20:24.230Z,100774.02
2023-02-25T23:22:55.327Z,100781.38
2023-02-25T23:25:31.089Z,100766.98
2023-02-25T23:28:18.003Z,100779.64
2023-02-25T23:31:10.365Z,100783.04
2023-02-25T23:33:54.423Z,100778.56
2023-02-25T23:36:29.326Z,100771.20
2023-02-25T23:39:01.625Z,100768.69
2023-02-25T23:41:36.575Z,100769.80
2023-02-25T23:44:21.740Z,100770.06
2023-02-25T23:46:54.395Z,100766.73
2023-02-25T23:49:31.454Z,100763.59
2023-02-25T23:52:07.069Z,100768.39
2023-02-25T23:54:38.034Z,100776.56
2023-02-25T23:57:21.446Z,100771.76
2023-02-25T23:59:58.721Z,100769.47
